createdAt,value
2017-12-29T00:00:03.942Z,-0.77
2017-12-29T00:01:03.674Z,-0.78
2017-12-29T00:02:03.590Z,-0.78
2017-12-29T00:03:03.463Z,-0.77
2017-12-29T00:04:03.399Z,-0.77
2017-12-29T00:05:04.366Z,-0.76
2017-12-29T00:06:03.400Z,-0.76
2017-12-29T00:07:04.173Z,-0.75
2017-12-29T00:08:04.138Z,-0.76
2017-12-29T00:09:03.803Z,-0.76
2017-12-29T00:10:03.608Z,-0.76
2017-12-29T00:11:03.725Z,-0.76
2017-12-29T00:12:03.858Z,-0.77
2017-12-29T00:13:03.787Z,-0.76
2017-12-29T00:14:03.755Z,-0.77
2017-12-29T00:15:03.619Z,-0.76
2017-12-29T00:16:03.591Z,-0.77
2017-12-29T00:17:03.403Z,-0.78
2017-12-29T00:18:04.309Z,-0.78
2017-12-29T00:19:04.192Z,-0.78
2017-12-29T00:20:03.879Z,-0.76
2017-12-29T00:21:03.746Z,-0.76
2017-12-29T00:22:03.778Z,-0.76
2017-12-29T00:23:03.611Z,-0.75
2017-12-29T00:24:03.625Z,-0.74
2017-12-29T00:25:03.650Z,-0.74
2017-12-29T00:26:03.722Z,-0.73
2017-12-29T00:27:03.728Z,-0.72
2017-12-29T00:28:03.734Z,-0.71
2017-12-29T00:29:03.908Z,-0.69
2017-12-29T00:30:03.678Z,-0.68
2017-12-29T00:31:03.465Z,-0.67
2017-12-29T00:32:03.274Z,-0.65
2017-12-29T00:33:03.212Z,-0.64
2017-12-29T00:34:03.998Z,-0.62
2017-12-29T00:35:04.067Z,-0.61
2017-12-29T00:36:03.951Z,-0.59
2017-12-29T00:37:04.089Z,-0.58
2017-12-29T00:38:03.806Z,-0.57
2017-12-29T00:39:03.823Z,-0.56
2017-12-29T00:40:03.752Z,-0.54
2017-12-29T00:41:03.855Z,-0.56
2017-12-29T00:42:03.906Z,-0.55
2017-12-29T00:43:04.010Z,-0.55
2017-12-29T00:44:03.995Z,-0.56
2017-12-29T00:45:03.860Z,-0.55
2017-12-29T00:46:03.631Z,-0.55
2017-12-29T00:47:03.588Z,-0.55
2017-12-29T00:48:03.452Z,-0.56
2017-12-29T00:49:03.554Z,-0.58
2017-12-29T00:50:03.597Z,-0.58
2017-12-29T00:51:03.532Z,-0.59
2017-12-29T00:52:04.380Z,-0.61
2017-12-29T00:53:04.168Z,-0.62
2017-12-29T00:54:04.067Z,-0.62
2017-12-29T00:55:04.106Z,-0.63
2017-12-29T00:56:04.037Z,-0.64
2017-12-29T00:57:03.927Z,-0.66
2017-12-29T00:58:03.726Z,-0.67
2017-12-29T00:59:04.665Z,-0.67
2017-12-29T01:00:04.220Z,-0.67
2017-12-29T01:01:03.922Z,-0.69
2017-12-29T01:02:03.935Z,-0.7
2017-12-29T01:03:03.969Z,-0.69
2017-12-29T01:04:03.915Z,-0.7
2017-12-29T01:05:04.149Z,-0.7
2017-12-29T01:06:04.202Z,-0.69
2017-12-29T01:07:04.361Z,-0.69
2017-12-29T01:08:04.381Z,-0.69
2017-12-29T01:09:04.493Z,-0.69
2017-12-29T01:10:04.319Z,-0.7
2017-12-29T01:11:04.486Z,-0.7
2017-12-29T01:12:03.642Z,-0.7
2017-12-29T01:13:04.568Z,-0.69
2017-12-29T01:14:03.702Z,-0.68
2017-12-29T01:15:03.937Z,-0.68
2017-12-29T01:16:03.947Z,-0.68
2017-12-29T01:17:03.943Z,-0.67
2017-12-29T01:18:04.129Z,-0.66
2017-12-29T01:19:04.316Z,-0.65
2017-12-29T01:20:04.094Z,-0.64
2017-12-29T01:21:03.753Z,-0.63
2017-12-29T01:22:03.840Z,-0.62
2017-12-29T01:23:03.727Z,-0.61
2017-12-29T01:24:03.869Z,-0.6
2017-12-29T01:25:03.434Z,-0.6
2017-12-29T01:26:03.614Z,-0.59
2017-12-29T01:27:04.063Z,-0.6
2017-12-29T01:28:04.131Z,-0.57
2017-12-29T01:29:03.491Z,-0.57
2017-12-29T01:30:03.500Z,-0.57
2017-12-29T01:31:03.632Z,-0.56
2017-12-29T01:32:03.548Z,-0.56
2017-12-29T01:33:03.759Z,-0.56
2017-12-29T01:34:03.682Z,-0.56
2017-12-29T01:35:03.794Z,-0.54
2017-12-29T01:36:03.282Z,-0.54
2017-12-29T01:37:03.781Z,-0.53
2017-12-29T01:38:03.452Z,-0.51
2017-12-29T01:39:03.853Z,-0.51
2017-12-29T01:40:03.933Z,-0.5
2017-12-29T01:41:04.099Z,-0.5
2017-12-29T01:42:04.011Z,-0.48
2017-12-29T01:43:03.738Z,-0.48
2017-12-29T01:44:03.211Z,-0.45
2017-12-29T01:45:03.406Z,-0.45
2017-12-29T01:46:03.747Z,-0.45
2017-12-29T01:47:04.015Z,-0.43
2017-12-29T01:48:04.070Z,-0.43
2017-12-29T01:49:03.991Z,-0.44
2017-12-29T01:50:04.093Z,-0.41
2017-12-29T01:51:04.132Z,-0.42
2017-12-29T01:52:03.840Z,-0.41
2017-12-29T01:53:03.660Z,-0.42
2017-12-29T01:54:03.461Z,-0.4
2017-12-29T01:55:03.401Z,-0.38
2017-12-29T01:56:03.551Z,-0.4
2017-12-29T01:57:03.131Z,-0.38
2017-12-29T01:58:03.211Z,-0.39
2017-12-29T01:59:04.028Z,-0.37
2017-12-29T02:00:03.652Z,-0.4
2017-12-29T02:01:03.859Z,-0.4
2017-12-29T02:02:03.793Z,-0.41
2017-12-29T02:03:03.701Z,-0.43
2017-12-29T02:04:03.193Z,-0.44
2017-12-29T02:05:03.297Z,-0.44
2017-12-29T02:06:03.330Z,-0.45
2017-12-29T02:07:03.262Z,-0.46
2017-12-29T02:08:03.382Z,-0.47
2017-12-29T02:09:03.308Z,-0.47
2017-12-29T02:10:03.173Z,-0.48
2017-12-29T02:11:04.101Z,-0.48
2017-12-29T02:12:04.012Z,-0.5
2017-12-29T02:13:04.070Z,-0.52
2017-12-29T02:14:03.220Z,-0.53
2017-12-29T02:15:03.153Z,-0.55
2017-12-29T02:16:04.083Z,-0.56
2017-12-29T02:17:04.117Z,-0.58
2017-12-29T02:18:04.017Z,-0.59
2017-12-29T02:19:03.971Z,-0.6
2017-12-29T02:20:03.975Z,-0.6
2017-12-29T02:21:04.010Z,-0.62
2017-12-29T02:22:04.103Z,-0.63
2017-12-29T02:23:03.227Z,-0.63
2017-12-29T02:24:03.286Z,-0.63
2017-12-29T02:25:03.344Z,-0.64
2017-12-29T02:26:03.266Z,-0.65
2017-12-29T02:27:03.313Z,-0.64
2017-12-29T02:28:03.385Z,-0.66
2017-12-29T02:29:03.416Z,-0.67
2017-12-29T02:30:03.279Z,-0.68
2017-12-29T02:31:03.439Z,-0.69
2017-12-29T02:32:03.332Z,-0.7
2017-12-29T02:33:03.279Z,-0.71
2017-12-29T02:34:03.122Z,-0.73
2017-12-29T02:35:03.124Z,-0.74
2017-12-29T02:36:03.167Z,-0.74
2017-12-29T02:37:03.936Z,-0.75
2017-12-29T02:38:03.853Z,-0.76
2017-12-29T02:39:03.910Z,-0.78
2017-12-29T02:40:03.896Z,-0.78
2017-12-29T02:41:03.665Z,-0.79
2017-12-29T02:42:03.708Z,-0.8
2017-12-29T02:43:03.546Z,-0.81
2017-12-29T02:44:03.661Z,-0.82
2017-12-29T02:45:03.692Z,-0.82
2017-12-29T02:46:03.836Z,-0.82
2017-12-29T02:47:03.863Z,-0.83
2017-12-29T02:48:03.852Z,-0.83
2017-12-29T02:49:03.679Z,-0.84
2017-12-29T02:50:03.710Z,-0.83
2017-12-29T02:51:03.792Z,-0.84
2017-12-29T02:52:03.799Z,-0.83
2017-12-29T02:53:03.716Z,-0.84
2017-12-29T02:54:03.865Z,-0.82
2017-12-29T02:55:03.847Z,-0.83
2017-12-29T02:56:03.849Z,-0.83
2017-12-29T02:57:04.970Z,-0.84
2017-12-29T02:58:04.115Z,-0.82
2017-12-29T02:59:04.110Z,-0.84
2017-12-29T03:00:03.979Z,-0.85
2017-12-29T03:01:03.717Z,-0.84
2017-12-29T03:02:03.883Z,-0.85
2017-12-29T03:03:03.884Z,-0.84
2017-12-29T03:04:03.936Z,-0.86
2017-12-29T03:05:04.038Z,-0.86
2017-12-29T03:06:04.026Z,-0.87
2017-12-29T03:07:03.948Z,-0.88
2017-12-29T03:08:04.007Z,-0.86
2017-12-29T03:09:04.295Z,-0.86
2017-12-29T03:10:04.257Z,-0.86
2017-12-29T03:11:04.227Z,-0.87
2017-12-29T03:12:04.132Z,-0.86
2017-12-29T03:13:04.071Z,-0.87
2017-12-29T03:14:04.081Z,-0.88
2017-12-29T03:15:04.108Z,-0.87
2017-12-29T03:16:04.102Z,-0.88
2017-12-29T03:17:04.143Z,-0.88
2017-12-29T03:18:04.234Z,-0.88
2017-12-29T03:19:04.190Z,-0.88
2017-12-29T03:20:04.382Z,-0.88
2017-12-29T03:21:04.286Z,-0.9
2017-12-29T03:22:04.364Z,-0.88
2017-12-29T03:23:04.361Z,-0.88
2017-12-29T03:24:04.276Z,-0.88
2017-12-29T03:25:04.074Z,-0.88
2017-12-29T03:26:04.370Z,-0.87
2017-12-29T03:27:04.037Z,-0.88
2017-12-29T03:28:03.993Z,-0.88
2017-12-29T03:29:03.853Z,-0.86
2017-12-29T03:30:03.716Z,-0.87
2017-12-29T03:31:03.741Z,-0.88
2017-12-29T03:32:03.576Z,-0.88
2017-12-29T03:33:03.501Z,-0.89
2017-12-29T03:34:03.351Z,-0.89
2017-12-29T03:35:03.438Z,-0.88
2017-12-29T03:36:03.426Z,-0.87
2017-12-29T03:37:03.574Z,-0.87
2017-12-29T03:38:03.702Z,-0.86
2017-12-29T03:39:03.655Z,-0.84
2017-12-29T03:40:03.633Z,-0.84
2017-12-29T03:41:03.400Z,-0.82
2017-12-29T03:42:04.327Z,-0.82
2017-12-29T03:43:04.284Z,-0.8
2017-12-29T03:44:04.179Z,-0.77
2017-12-29T03:45:03.921Z,-0.75
2017-12-29T03:46:03.804Z,-0.71
2017-12-29T03:47:03.532Z,-0.69
2017-12-29T03:48:03.415Z,-0.66
2017-12-29T03:49:03.466Z,-0.64
2017-12-29T03:50:04.310Z,-0.62
2017-12-29T03:51:04.172Z,-0.61
2017-12-29T03:52:04.062Z,-0.6
2017-12-29T03:53:04.023Z,-0.57
2017-12-29T03:54:04.057Z,-0.55
2017-12-29T03:55:04.024Z,-0.53
2017-12-29T03:56:03.140Z,-0.51
2017-12-29T03:57:03.930Z,-0.49
2017-12-29T03:58:03.888Z,-0.47
2017-12-29T03:59:03.921Z,-0.45
2017-12-29T04:00:03.941Z,-0.43
2017-12-29T04:01:03.819Z,-0.43
2017-12-29T04:02:03.771Z,-0.4
2017-12-29T04:03:03.776Z,-0.39
2017-12-29T04:04:03.844Z,-0.38
2017-12-29T04:05:03.770Z,-0.37
2017-12-29T04:06:03.650Z,-0.36
2017-12-29T04:07:03.730Z,-0.36
2017-12-29T04:08:03.698Z,-0.35
2017-12-29T04:09:03.569Z,-0.35
2017-12-29T04:10:03.488Z,-0.34
2017-12-29T04:11:03.596Z,-0.33
2017-12-29T04:12:03.701Z,-0.31
2017-12-29T04:13:03.605Z,-0.31
2017-12-29T04:14:03.594Z,-0.3
2017-12-29T04:15:03.241Z,-0.32
2017-12-29T04:16:03.324Z,-0.34
2017-12-29T04:17:03.272Z,-0.35
2017-12-29T04:18:03.348Z,-0.36
2017-12-29T04:19:03.292Z,-0.37
2017-12-29T04:20:03.321Z,-0.38
2017-12-29T04:21:03.161Z,-0.4
2017-12-29T04:22:03.173Z,-0.41
2017-12-29T04:23:03.130Z,-0.42
2017-12-29T04:24:03.979Z,-0.43
2017-12-29T04:25:03.030Z,-0.44
2017-12-29T04:26:03.713Z,-0.45
2017-12-29T04:27:03.584Z,-0.46
2017-12-29T04:28:03.359Z,-0.48
2017-12-29T04:29:03.592Z,-0.48
2017-12-29T04:30:03.329Z,-0.48
2017-12-29T04:31:03.306Z,-0.48
2017-12-29T04:32:03.953Z,-0.5
2017-12-29T04:33:03.878Z,-0.51
2017-12-29T04:34:04.203Z,-0.54
2017-12-29T04:35:03.303Z,-0.55
2017-12-29T04:36:03.268Z,-0.57
2017-12-29T04:37:03.081Z,-0.57
2017-12-29T04:38:03.783Z,-0.56
2017-12-29T04:39:03.656Z,-0.57
2017-12-29T04:40:03.546Z,-0.55
2017-12-29T04:41:03.496Z,-0.54
2017-12-29T04:42:03.272Z,-0.52
2017-12-29T04:43:03.316Z,-0.49
2017-12-29T04:44:03.168Z,-0.47
2017-12-29T04:45:03.121Z,-0.43
2017-12-29T04:46:03.154Z,-0.41
2017-12-29T04:47:03.084Z,-0.37
2017-12-29T04:48:03.927Z,-0.33
2017-12-29T04:49:03.112Z,-0.3
2017-12-29T04:50:03.121Z,-0.27
2017-12-29T04:51:03.265Z,-0.26
2017-12-29T04:52:03.899Z,-0.24
2017-12-29T04:53:03.834Z,-0.2
2017-12-29T04:54:03.952Z,-0.18
2017-12-29T04:55:04.113Z,-0.16
2017-12-29T04:56:03.153Z,-0.14
2017-12-29T04:57:03.835Z,-0.11
2017-12-29T04:58:03.712Z,-0.08
2017-12-29T04:59:03.375Z,-0.05
2017-12-29T05:00:03.144Z,-0.03
2017-12-29T05:01:03.218Z,0
2017-12-29T05:02:03.290Z,0.02
2017-12-29T05:03:03.228Z,0.03
2017-12-29T05:04:03.106Z,0.05
2017-12-29T05:05:04.015Z,0.07
2017-12-29T05:06:03.970Z,0.08
2017-12-29T05:07:03.938Z,0.11
2017-12-29T05:08:03.955Z,0.12
2017-12-29T05:09:03.672Z,0.15
2017-12-29T05:10:03.738Z,0.17
2017-12-29T05:11:03.781Z,0.19
2017-12-29T05:12:03.540Z,0.19
2017-12-29T05:13:03.558Z,0.21
2017-12-29T05:14:03.682Z,0.22
2017-12-29T05:15:03.569Z,0.24
2017-12-29T05:16:03.576Z,0.25
2017-12-29T05:17:03.379Z,0.27
2017-12-29T05:18:03.560Z,0.29
2017-12-29T05:19:03.553Z,0.29
2017-12-29T05:20:03.585Z,0.3
2017-12-29T05:21:03.443Z,0.33
2017-12-29T05:22:03.618Z,0.34
2017-12-29T05:23:03.667Z,0.36
2017-12-29T05:24:03.467Z,0.36
2017-12-29T05:25:03.298Z,0.37
2017-12-29T05:26:03.399Z,0.39
2017-12-29T05:27:03.820Z,0.39
2017-12-29T05:28:03.703Z,0.4
2017-12-29T05:29:03.503Z,0.4
2017-12-29T05:30:03.424Z,0.4
2017-12-29T05:31:03.108Z,0.41
2017-12-29T05:32:03.859Z,0.42
2017-12-29T05:33:03.817Z,0.41
2017-12-29T05:34:03.787Z,0.43
2017-12-29T05:35:03.801Z,0.43
2017-12-29T05:36:03.604Z,0.42
2017-12-29T05:37:03.503Z,0.43
2017-12-29T05:38:03.370Z,0.43
2017-12-29T05:39:03.511Z,0.43
2017-12-29T05:40:03.557Z,0.43
2017-12-29T05:41:03.512Z,0.43
2017-12-29T05:42:03.601Z,0.44
2017-12-29T05:43:03.904Z,0.42
2017-12-29T05:44:03.834Z,0.42
2017-12-29T05:45:04.169Z,0.43
2017-12-29T05:46:03.811Z,0.43
2017-12-29T05:47:03.616Z,0.43
2017-12-29T05:48:03.517Z,0.43
2017-12-29T05:49:03.723Z,0.44
2017-12-29T05:50:03.715Z,0.45
2017-12-29T05:51:03.727Z,0.44
2017-12-29T05:52:03.720Z,0.45
2017-12-29T05:53:03.905Z,0.46
2017-12-29T05:54:03.849Z,0.46
2017-12-29T05:55:03.876Z,0.46
2017-12-29T05:56:03.909Z,0.47
2017-12-29T05:57:04.017Z,0.48
2017-12-29T05:58:04.756Z,0.48
2017-12-29T05:59:03.929Z,0.49
2017-12-29T06:00:03.975Z,0.5
2017-12-29T06:01:04.691Z,0.5
2017-12-29T06:02:04.589Z,0.51
2017-12-29T06:03:04.320Z,0.51
2017-12-29T06:04:04.192Z,0.51
2017-12-29T06:05:04.165Z,0.52
2017-12-29T06:06:04.092Z,0.54
2017-12-29T06:07:03.977Z,0.53
2017-12-29T06:08:04.100Z,0.54
2017-12-29T06:09:03.959Z,0.53
2017-12-29T06:10:03.940Z,0.54
2017-12-29T06:11:04.863Z,0.53
2017-12-29T06:12:03.918Z,0.54
2017-12-29T06:13:04.808Z,0.54
2017-12-29T06:14:04.709Z,0.54
2017-12-29T06:15:04.638Z,0.53
2017-12-29T06:16:04.540Z,0.55
2017-12-29T06:17:04.955Z,0.54
2017-12-29T06:18:03.974Z,0.54
2017-12-29T06:19:03.991Z,0.54
2017-12-29T06:20:04.111Z,0.54
2017-12-29T06:21:04.070Z,0.53
2017-12-29T06:22:04.145Z,0.54
2017-12-29T06:23:04.285Z,0.54
2017-12-29T06:24:04.320Z,0.54
2017-12-29T06:25:04.291Z,0.55
2017-12-29T06:26:04.078Z,0.55
2017-12-29T06:27:03.789Z,0.55
2017-12-29T06:28:03.673Z,0.55
2017-12-29T06:29:03.754Z,0.55
2017-12-29T06:30:03.825Z,0.55
2017-12-29T06:31:03.843Z,0.55
2017-12-29T06:32:03.639Z,0.55
2017-12-29T06:33:03.557Z,0.55
2017-12-29T06:34:03.410Z,0.54
2017-12-29T06:35:03.709Z,0.55
2017-12-29T06:36:03.760Z,0.55
2017-12-29T06:37:03.716Z,0.55
2017-12-29T06:38:03.695Z,0.56
2017-12-29T06:39:03.648Z,0.56
2017-12-29T06:40:03.843Z,0.55
2017-12-29T06:41:03.788Z,0.56
2017-12-29T06:42:03.521Z,0.56
2017-12-29T06:43:03.505Z,0.56
2017-12-29T06:44:03.351Z,0.55
2017-12-29T06:45:03.292Z,0.56
2017-12-29T06:46:03.342Z,0.57
2017-12-29T06:47:03.212Z,0.57
2017-12-29T06:48:03.117Z,0.56
2017-12-29T06:49:04.065Z,0.56
2017-12-29T06:50:03.150Z,0.57
2017-12-29T06:51:03.103Z,0.57
2017-12-29T06:52:03.122Z,0.56
2017-12-29T06:53:04.055Z,0.57
2017-12-29T06:54:03.322Z,0.58
2017-12-29T06:55:03.412Z,0.58
2017-12-29T06:56:03.616Z,0.59
2017-12-29T06:57:03.619Z,0.6
2017-12-29T06:58:04.554Z,0.59
2017-12-29T06:59:03.691Z,0.6
2017-12-29T07:00:04.471Z,0.6
2017-12-29T07:01:04.493Z,0.6
2017-12-29T07:02:04.522Z,0.6
2017-12-29T07:03:04.540Z,0.6
2017-12-29T07:04:04.374Z,0.6
2017-12-29T07:05:04.571Z,0.61
2017-12-29T07:06:04.593Z,0.61
2017-12-29T07:07:03.603Z,0.62
2017-12-29T07:08:04.590Z,0.62
2017-12-29T07:09:03.613Z,0.62
2017-12-29T07:10:04.529Z,0.61
2017-12-29T07:11:03.769Z,0.61
2017-12-29T07:12:03.738Z,0.62
2017-12-29T07:13:03.677Z,0.63
2017-12-29T07:14:03.604Z,0.62
2017-12-29T07:15:03.688Z,0.62
2017-12-29T07:16:04.617Z,0.62
2017-12-29T07:17:03.712Z,0.64
2017-12-29T07:18:03.678Z,0.64
2017-12-29T07:19:04.565Z,0.64
2017-12-29T07:20:04.518Z,0.65
2017-12-29T07:21:04.385Z,0.64
2017-12-29T07:22:04.213Z,0.64
2017-12-29T07:23:04.222Z,0.64
2017-12-29T07:24:04.198Z,0.65
2017-12-29T07:25:04.231Z,0.64
2017-12-29T07:26:04.232Z,0.65
2017-12-29T07:27:04.013Z,0.65
2017-12-29T07:28:03.062Z,0.64
2017-12-29T07:29:03.027Z,0.65
2017-12-29T07:30:03.086Z,0.64
2017-12-29T07:31:03.784Z,0.65
2017-12-29T07:32:03.628Z,0.65
2017-12-29T07:33:03.444Z,0.65
2017-12-29T07:34:03.593Z,0.65
2017-12-29T07:35:03.753Z,0.66
2017-12-29T07:36:03.734Z,0.66
2017-12-29T07:37:03.845Z,0.67
2017-12-29T07:38:02.992Z,0.67
2017-12-29T07:39:02.992Z,0.68
2017-12-29T07:40:03.336Z,0.69
2017-12-29T07:41:03.310Z,0.69
2017-12-29T07:42:03.264Z,0.7
2017-12-29T07:43:03.405Z,0.71
2017-12-29T07:44:03.290Z,0.71
2017-12-29T07:45:03.299Z,0.71
2017-12-29T07:46:03.487Z,0.72
2017-12-29T07:47:03.325Z,0.72
2017-12-29T07:48:03.387Z,0.72
2017-12-29T07:49:03.451Z,0.72
2017-12-29T07:50:03.475Z,0.73
2017-12-29T07:51:03.666Z,0.74
2017-12-29T07:52:03.734Z,0.74
2017-12-29T07:53:03.586Z,0.73
2017-12-29T07:54:03.488Z,0.74
2017-12-29T07:55:03.385Z,0.74
2017-12-29T07:56:03.472Z,0.74
2017-12-29T07:57:03.511Z,0.74
2017-12-29T07:58:03.479Z,0.74
2017-12-29T07:59:03.458Z,0.74
2017-12-29T08:00:03.438Z,0.74
2017-12-29T08:01:04.267Z,0.74
2017-12-29T08:02:04.200Z,0.74
2017-12-29T08:03:04.114Z,0.76
2017-12-29T08:04:04.129Z,0.76
2017-12-29T08:05:03.985Z,0.76
2017-12-29T08:06:04.088Z,0.75
2017-12-29T08:07:04.014Z,0.77
2017-12-29T08:08:03.956Z,0.76
2017-12-29T08:09:03.746Z,0.78
2017-12-29T08:10:03.825Z,0.78
2017-12-29T08:11:03.718Z,0.78
2017-12-29T08:12:03.489Z,0.79
2017-12-29T08:13:04.170Z,0.8
2017-12-29T08:14:04.332Z,0.79
2017-12-29T08:15:04.033Z,0.81
2017-12-29T08:16:04.063Z,0.81
2017-12-29T08:17:04.188Z,0.81
2017-12-29T08:18:04.277Z,0.82
2017-12-29T08:19:04.049Z,0.84
2017-12-29T08:20:03.993Z,0.85
2017-12-29T08:21:03.972Z,0.86
2017-12-29T08:22:04.042Z,0.86
2017-12-29T08:23:04.172Z,0.87
2017-12-29T08:24:04.142Z,0.88
2017-12-29T08:25:04.216Z,0.88
2017-12-29T08:26:04.340Z,0.89
2017-12-29T08:27:04.395Z,0.89
2017-12-29T08:28:03.415Z,0.89
2017-12-29T08:29:04.163Z,0.89
2017-12-29T08:30:04.128Z,0.9
2017-12-29T08:31:04.090Z,0.9
2017-12-29T08:32:04.027Z,0.9
2017-12-29T08:33:03.943Z,0.92
2017-12-29T08:34:03.942Z,0.92
2017-12-29T08:35:04.326Z,0.92
2017-12-29T08:36:03.411Z,0.93
2017-12-29T08:37:03.426Z,0.95
2017-12-29T08:38:03.641Z,0.95
2017-12-29T08:39:03.660Z,0.96
2017-12-29T08:40:03.730Z,1
2017-12-29T08:41:03.733Z,1.02
2017-12-29T08:42:03.727Z,1.04
2017-12-29T08:43:03.727Z,1.07
2017-12-29T08:44:03.762Z,1.1
2017-12-29T08:45:03.758Z,1.13
2017-12-29T08:46:03.886Z,1.14
2017-12-29T08:47:04.105Z,1.17
2017-12-29T08:48:04.702Z,1.18
2017-12-29T08:49:03.907Z,1.17
2017-12-29T08:50:03.896Z,1.18
2017-12-29T08:51:03.968Z,1.18
2017-12-29T08:52:04.032Z,1.19
2017-12-29T08:53:04.114Z,1.2
2017-12-29T08:54:04.454Z,1.21
2017-12-29T08:55:03.524Z,1.22
2017-12-29T08:56:03.416Z,1.23
2017-12-29T08:57:03.484Z,1.24
2017-12-29T08:58:03.574Z,1.25
2017-12-29T08:59:03.676Z,1.27
2017-12-29T09:00:03.865Z,1.29
2017-12-29T09:01:03.886Z,1.3
2017-12-29T09:02:03.812Z,1.33
2017-12-29T09:02:21.925Z,1.38
2017-12-29T09:03:22.116Z,1.37
2017-12-29T09:04:23.156Z,1.37
2017-12-29T09:05:22.341Z,1.38
2017-12-29T09:06:22.410Z,1.39
2017-12-29T09:07:21.833Z,1.38
2017-12-29T09:08:21.932Z,1.41
2017-12-29T09:09:22.175Z,1.43
2017-12-29T09:10:22.510Z,1.44
2017-12-29T09:11:21.963Z,1.44
2017-12-29T09:12:22.184Z,1.45
2017-12-29T09:13:22.392Z,1.47
2017-12-29T09:14:22.498Z,1.51
2017-12-29T09:15:22.062Z,1.56
2017-12-29T09:16:22.336Z,1.58
2017-12-29T09:17:22.549Z,1.63
2017-12-29T09:18:22.541Z,1.65
2017-12-29T09:19:22.707Z,1.68
2017-12-29T09:20:22.626Z,1.71
2017-12-29T09:21:21.814Z,1.73
2017-12-29T09:22:21.873Z,1.76
2017-12-29T09:23:22.431Z,1.79
2017-12-29T09:24:22.332Z,1.82
2017-12-29T09:25:22.262Z,1.85
2017-12-29T09:26:22.349Z,1.88
2017-12-29T09:27:22.283Z,1.91
2017-12-29T09:28:22.240Z,1.94
2017-12-29T09:29:22.118Z,1.96
2017-12-29T09:30:22.315Z,1.99
2017-12-29T09:31:22.402Z,2.01
2017-12-29T09:32:22.727Z,2.04
2017-12-29T09:33:22.029Z,2.04
2017-12-29T09:34:22.111Z,2.03
2017-12-29T09:35:22.195Z,2.02
2017-12-29T09:36:22.240Z,2.02
2017-12-29T09:37:22.222Z,2.02
2017-12-29T09:38:22.537Z,1.99
2017-12-29T09:39:22.582Z,1.96
2017-12-29T09:40:22.692Z,1.94
2017-12-29T09:41:22.030Z,1.9
2017-12-29T09:42:22.090Z,1.88
2017-12-29T09:43:22.201Z,1.85
2017-12-29T09:44:22.293Z,1.83
2017-12-29T09:45:22.503Z,1.79
2017-12-29T09:46:22.435Z,1.77
2017-12-29T09:47:22.684Z,1.74
2017-12-29T09:48:22.640Z,1.73
2017-12-29T09:49:21.844Z,1.7
2017-12-29T09:50:21.970Z,1.68
2017-12-29T09:51:21.934Z,1.67
2017-12-29T09:52:22.083Z,1.65
2017-12-29T09:53:22.286Z,1.63
2017-12-29T09:54:22.549Z,1.64
2017-12-29T09:55:22.644Z,1.62
2017-12-29T09:56:22.662Z,1.62
2017-12-29T09:57:22.714Z,1.61
2017-12-29T09:58:22.155Z,1.6
2017-12-29T09:59:22.241Z,1.6
2017-12-29T10:00:22.471Z,1.59
2017-12-29T10:01:22.337Z,1.61
2017-12-29T10:02:22.320Z,1.61
2017-12-29T10:03:22.423Z,1.61
2017-12-29T10:04:21.406Z,1.62
2017-12-29T10:05:22.299Z,1.61
2017-12-29T10:06:21.406Z,1.61
2017-12-29T10:07:21.443Z,1.62
2017-12-29T10:08:21.533Z,1.63
2017-12-29T10:09:21.570Z,1.64
2017-12-29T10:10:21.783Z,1.65
2017-12-29T10:11:21.881Z,1.67
2017-12-29T10:12:22.280Z,1.69
2017-12-29T10:13:22.244Z,1.69
2017-12-29T10:14:21.495Z,1.69
2017-12-29T10:15:21.345Z,1.69
2017-12-29T10:16:22.376Z,1.7
2017-12-29T10:17:21.379Z,1.69
2017-12-29T10:18:22.389Z,1.69
2017-12-29T10:19:21.780Z,1.68
2017-12-29T10:20:21.592Z,1.7
2017-12-29T10:21:21.643Z,1.72
2017-12-29T10:22:21.742Z,1.74
2017-12-29T10:23:21.508Z,1.75
2017-12-29T10:24:21.974Z,1.77
2017-12-29T10:25:22.103Z,1.78
2017-12-29T10:26:22.517Z,1.8
2017-12-29T10:27:23.201Z,1.81
2017-12-29T10:28:21.899Z,1.83
2017-12-29T10:29:22.345Z,1.83
2017-12-29T10:30:21.716Z,1.84
2017-12-29T10:31:22.893Z,1.84
2017-12-29T10:32:21.898Z,1.85
2017-12-29T10:33:24.543Z,1.87
2017-12-29T10:34:21.862Z,1.86
2017-12-29T10:35:22.631Z,1.87
2017-12-29T10:36:22.323Z,1.87
2017-12-29T10:37:22.253Z,1.91
2017-12-29T10:38:22.133Z,1.97
2017-12-29T10:39:22.776Z,2
2017-12-29T10:40:21.880Z,2.01
2017-12-29T10:41:22.745Z,2.06
2017-12-29T10:42:21.833Z,2.1
2017-12-29T10:43:21.882Z,2.14
2017-12-29T10:44:21.922Z,2.16
2017-12-29T10:45:22.685Z,2.18
2017-12-29T10:46:21.901Z,2.22
2017-12-29T10:47:22.991Z,2.27
2017-12-29T10:48:21.934Z,2.33
2017-12-29T10:49:21.922Z,2.39
2017-12-29T10:50:22.112Z,2.44
2017-12-29T10:51:21.983Z,2.46
2017-12-29T10:52:22.589Z,2.48
2017-12-29T10:53:22.634Z,2.52
2017-12-29T10:54:22.524Z,2.58
2017-12-29T10:55:22.593Z,2.63
2017-12-29T10:56:21.880Z,2.68
2017-12-29T10:57:21.907Z,2.75
2017-12-29T10:58:22.078Z,2.82
2017-12-29T10:59:22.153Z,2.86
2017-12-29T11:00:22.348Z,2.91
2017-12-29T11:01:22.792Z,2.92
2017-12-29T11:02:22.563Z,2.95
2017-12-29T11:03:22.688Z,2.96
2017-12-29T11:04:22.759Z,2.99
2017-12-29T11:05:22.475Z,3.01
2017-12-29T11:06:22.691Z,3.03
2017-12-29T11:07:22.920Z,3.05
2017-12-29T11:08:22.089Z,3.08
2017-12-29T11:09:22.175Z,3.07
2017-12-29T11:10:22.288Z,3.09
2017-12-29T11:11:22.296Z,3.1
2017-12-29T11:12:22.836Z,3.08
2017-12-29T11:13:22.195Z,3.1
2017-12-29T11:14:22.373Z,3.11
2017-12-29T11:15:22.608Z,3.12
2017-12-29T11:16:22.748Z,3.11
2017-12-29T11:17:22.718Z,3.11
2017-12-29T11:18:22.022Z,3.11
2017-12-29T11:19:22.133Z,3.1
2017-12-29T11:20:22.241Z,3.09
2017-12-29T11:21:22.424Z,3.09
2017-12-29T11:22:22.515Z,3.07
2017-12-29T11:23:22.548Z,3.07
2017-12-29T11:24:22.338Z,3.07
2017-12-29T11:25:22.297Z,3.08
2017-12-29T11:26:22.614Z,3.08
2017-12-29T11:27:22.685Z,3.1
2017-12-29T11:28:22.705Z,3.12
2017-12-29T11:29:22.773Z,3.14
2017-12-29T11:30:21.962Z,3.17
2017-12-29T11:31:21.995Z,3.19
2017-12-29T11:32:22.159Z,3.21
2017-12-29T11:33:22.020Z,3.23
2017-12-29T11:34:22.256Z,3.24
2017-12-29T11:35:22.363Z,3.26
2017-12-29T11:36:21.606Z,3.27
2017-12-29T11:37:21.896Z,3.29
2017-12-29T11:38:21.955Z,3.31
2017-12-29T11:39:21.947Z,3.34
2017-12-29T11:40:22.041Z,3.38
2017-12-29T11:41:22.104Z,3.41
2017-12-29T11:42:22.278Z,3.43
2017-12-29T11:43:22.278Z,3.45
2017-12-29T11:44:22.691Z,3.45
2017-12-29T11:45:22.076Z,3.46
2017-12-29T11:46:22.055Z,3.49
2017-12-29T11:47:22.348Z,3.5
2017-12-29T11:48:21.534Z,3.51
2017-12-29T11:49:22.070Z,3.51
2017-12-29T11:50:22.249Z,3.51
2017-12-29T11:51:22.175Z,3.54
2017-12-29T11:52:21.407Z,3.57
2017-12-29T11:53:21.592Z,3.58
2017-12-29T11:54:21.819Z,3.58
2017-12-29T11:55:22.166Z,3.58
2017-12-29T11:56:22.318Z,3.6
2017-12-29T11:57:22.135Z,3.61
2017-12-29T11:58:21.939Z,3.61
2017-12-29T11:59:22.204Z,3.62
2017-12-29T12:00:22.294Z,3.61
2017-12-29T12:01:22.140Z,3.59
2017-12-29T12:02:22.245Z,3.59
2017-12-29T12:03:22.243Z,3.58
2017-12-29T12:04:21.516Z,3.58
2017-12-29T12:05:21.513Z,3.57
2017-12-29T12:06:21.917Z,3.56
2017-12-29T12:07:22.038Z,3.56
2017-12-29T12:08:22.185Z,3.54
2017-12-29T12:09:22.126Z,3.53
2017-12-29T12:10:22.261Z,3.52
2017-12-29T12:11:22.614Z,3.51
2017-12-29T12:12:22.544Z,3.49
2017-12-29T12:13:22.497Z,3.49
2017-12-29T12:14:22.434Z,3.5
2017-12-29T12:15:22.381Z,3.51
2017-12-29T12:16:22.618Z,3.51
2017-12-29T12:17:22.622Z,3.53
2017-12-29T12:18:22.700Z,3.54
2017-12-29T12:19:22.481Z,3.55
2017-12-29T12:20:22.430Z,3.57
2017-12-29T12:21:22.721Z,3.58
2017-12-29T12:22:22.623Z,3.57
2017-12-29T12:23:22.735Z,3.59
2017-12-29T12:24:22.612Z,3.6
2017-12-29T12:25:22.386Z,3.61
2017-12-29T12:26:22.377Z,3.61
2017-12-29T12:27:22.338Z,3.63
2017-12-29T12:28:22.210Z,3.64
2017-12-29T12:29:22.182Z,3.65
2017-12-29T12:30:22.651Z,3.66
2017-12-29T12:31:22.782Z,3.67
2017-12-29T12:32:22.781Z,3.69
2017-12-29T12:33:22.768Z,3.69
2017-12-29T12:34:22.624Z,3.7
2017-12-29T12:35:22.742Z,3.71
2017-12-29T12:36:21.136Z,3.71
2017-12-29T12:37:22.572Z,3.7
2017-12-29T12:38:21.497Z,3.71
2017-12-29T12:39:21.864Z,3.71
2017-12-29T12:40:21.093Z,3.71
2017-12-29T12:41:22.011Z,3.71
2017-12-29T12:42:22.084Z,3.7
2017-12-29T12:43:22.028Z,3.7
2017-12-29T12:44:21.116Z,3.7
2017-12-29T12:45:21.405Z,3.7
2017-12-29T12:46:21.491Z,3.71
2017-12-29T12:47:21.609Z,3.72
2017-12-29T12:48:21.775Z,3.71
2017-12-29T12:49:22.168Z,3.72
2017-12-29T12:50:21.305Z,3.72
2017-12-29T12:51:21.331Z,3.73
2017-12-29T12:52:21.565Z,3.73
2017-12-29T12:53:21.563Z,3.73
2017-12-29T12:54:21.617Z,3.73
2017-12-29T12:55:21.951Z,3.73
2017-12-29T12:56:21.155Z,3.73
2017-12-29T12:57:21.705Z,3.73
2017-12-29T12:58:21.688Z,3.73
2017-12-29T12:59:21.848Z,3.72
2017-12-29T13:00:22.190Z,3.72
2017-12-29T13:01:22.037Z,3.72
2017-12-29T13:02:22.000Z,3.72
2017-12-29T13:03:22.093Z,3.71
2017-12-29T13:04:21.546Z,3.73
2017-12-29T13:05:21.899Z,3.73
2017-12-29T13:06:21.241Z,3.73
2017-12-29T13:07:21.591Z,3.72
2017-12-29T13:08:22.110Z,3.72
2017-12-29T13:09:22.050Z,3.73
2017-12-29T13:10:21.239Z,3.71